Alessandro F — IBVQ — position and weather

sailwx.info

Track history (hours):
 
Tides and Currents Weather Stations Pressure Air Temp Water Temp Dewpoint Dewpoint Depression Visibility Wind Speed Wind Dir Waves Ship Positions

Alessandro F

Last reported at 2016-Feb-01 20:12 UTC. Time now 2016-Feb-07 03:56 UTC.
Position N 35°58' W 005°36'.

Length 100 m; draft 5.7 m.

Type: Ship (hazmat cat A). MMSI: 247046400.

Date/timePositionNaut miles runAvg speedWind from/ knotsBaromVisibWave heightAir tempDewpointWater temp
2016-Feb-01 20:12N 35°58' W 005°36'812.1
2016-Feb-01 19:33N 35°60' W 005°27'13412.2
2016-Feb-01 08:33N 36°22' W 002°43'1313.0
2016-Feb-01 07:32N 36°24' W 002°26'1313.0
2016-Feb-01 06:33N 36°26' W 002°11'7212.1
2016-Feb-01 00:33N 37°04' W 000°54'1212.2
2016-Jan-31 23:33N 37°10' W 000°41'1712.4
2016-Jan-31 22:11N 37°19' W 000°22'811.9
2016-Jan-31 21:33N 37°23' W 000°14'1212.1
2016-Jan-31 20:33N 37°29' W 000°01'1212.2
2016-Jan-31 19:33N 37°36' E 000°12'13212.8
2016-Jan-31 09:13N 38°45' E 002°35'912.9
2016-Jan-31 08:33N 38°49' E 002°45'1512.8
2016-Jan-31 07:23N 38°57' E 003°01'2413.0
2016-Jan-31 05:33N 39°09' E 003°28'38212.7
2016-Jan-29 23:33N 43°19' E 009°53'1212.7
2016-Jan-29 22:34N 43°26' E 010°07'1110.8
2016-Jan-29 21:33N 43°33' E 010°18'1 0.6
2016-Jan-29 19:20N 43°34' E 010°19'0 0.0
2016-Jan-29 18:29N 43°34' E 010°19'0 0.0
2016-Jan-29 17:17N 43°34' E 010°19'0 0.0
2016-Jan-29 16:32N 43°34' E 010°19'0 0.0
2016-Jan-29 15:32N 43°34' E 010°19'0 0.0
2016-Jan-29 14:32N 43°34' E 010°19'0 0.0
2016-Jan-29 13:32N 43°34' E 010°19'0 0.0
2016-Jan-29 12:23N 43°34' E 010°19'0 0.0
2016-Jan-29 11:29N 43°34' E 010°19'0 0.0
2016-Jan-29 10:29N 43°34' E 010°19'0 0.0
2016-Jan-29 08:29N 43°34' E 010°19'0 0.0
2016-Jan-29 07:29N 43°34' E 010°19'0 0.0
2016-Jan-29 05:08N 43°34' E 010°19'0 0.0
2016-Jan-29 04:32N 43°34' E 010°19'0 0.0
2016-Jan-29 03:32N 43°34' E 010°19'0 0.0
2016-Jan-29 02:23N 43°34' E 010°19'0 0.0
2016-Jan-29 01:32N 43°34' E 010°19'0 0.0
2016-Jan-28 23:26N 43°34' E 010°19'0 0.0
2016-Jan-28 22:32N 43°34' E 010°19'0 0.0
2016-Jan-28 21:29N 43°34' E 010°19'0 0.0
2016-Jan-28 20:32N 43°34' E 010°19'0 0.0
2016-Jan-28 19:32N 43°34' E 010°19'0 0.0
2016-Jan-28 18:29N 43°34' E 010°19'0 0.0
2016-Jan-28 17:32N 43°34' E 010°19'0 0.0
2016-Jan-28 16:29N 43°34' E 010°19'0 0.0
2016-Jan-28 15:32N 43°34' E 010°19'0 0.0
2016-Jan-28 14:26N 43°34' E 010°19'0 0.0
2016-Jan-28 13:29N 43°34' E 010°19'0 0.0
2016-Jan-28 12:32N 43°34' E 010°19'0 0.0
2016-Jan-28 11:32N 43°34' E 010°19'1 0.6
2016-Jan-28 10:33N 43°34' E 010°18'5 4.4
2016-Jan-28 09:31N 43°30' E 010°17'0 0.0
2016-Jan-28 08:31N 43°30' E 010°17'0 0.0
2016-Jan-28 07:19N 43°30' E 010°17'0 0.0
2016-Jan-28 06:31N 43°30' E 010°17'0 0.0
2016-Jan-28 05:31N 43°30' E 010°17'0 0.0
2016-Jan-28 04:31N 43°30' E 010°17'0 0.0
2016-Jan-28 03:28N 43°30' E 010°17'0 0.0
2016-Jan-28 02:28N 43°30' E 010°17'0 0.0
2016-Jan-28 01:31N 43°30' E 010°17'0 0.0
2016-Jan-28 00:31N 43°30' E 010°17'0 0.0
2016-Jan-27 23:31N 43°30' E 010°17'0 0.0
2016-Jan-27 22:28N 43°30' E 010°17'0 0.0
2016-Jan-27 21:31N 43°30' E 010°17'0 0.0
2016-Jan-27 20:31N 43°30' E 010°17'0 0.0
2016-Jan-27 19:31N 43°30' E 010°17'0 0.0
2016-Jan-27 18:28N 43°30' E 010°17'0 0.0
2016-Jan-27 17:31N 43°30' E 010°17'0 0.0
2016-Jan-27 16:31N 43°30' E 010°17'0 0.0
2016-Jan-27 15:31N 43°30' E 010°17'8 8.4
2016-Jan-27 14:33N 43°22' E 010°12'18 1.8
2016-Jan-27 04:17N 43°05' E 010°05'8 9.5
2016-Jan-27 03:27N 43°09' E 009°55'19 9.3
2016-Jan-27 01:25N 43°16' E 009°31'8 9.5
2016-Jan-27 00:33N 43°19' E 009°21'  
Track history (hours):
 
Tides and Currents Weather Stations Pressure Air Temp Water Temp Dewpoint Dewpoint Depression Visibility Wind Speed Wind Dir Waves Ship Positions

Alessandro F

Last reported at 2016-Feb-01 20:12 UTC. Time now 2016-Feb-07 03:56 UTC.
Position N 35°58' W 005°36'.

Length 100 m; draft 5.7 m.

Type: Ship (hazmat cat A). MMSI: 247046400.

Date/timePositionNaut miles runAvg speedWind from/ knotsBaromVisibWave heightAir tempDewpointWater temp
2016-Feb-01 20:12N 35°58' W 005°36'812.1
2016-Feb-01 19:33N 35°60' W 005°27'13412.2
2016-Feb-01 08:33N 36°22' W 002°43'1313.0
2016-Feb-01 07:32N 36°24' W 002°26'1313.0
2016-Feb-01 06:33N 36°26' W 002°11'7212.1
2016-Feb-01 00:33N 37°04' W 000°54'1212.2
2016-Jan-31 23:33N 37°10' W 000°41'1712.4
2016-Jan-31 22:11N 37°19' W 000°22'811.9
2016-Jan-31 21:33N 37°23' W 000°14'1212.1
2016-Jan-31 20:33N 37°29' W 000°01'1212.2
2016-Jan-31 19:33N 37°36' E 000°12'13212.8
2016-Jan-31 09:13N 38°45' E 002°35'912.9
2016-Jan-31 08:33N 38°49' E 002°45'1512.8
2016-Jan-31 07:23N 38°57' E 003°01'2413.0
2016-Jan-31 05:33N 39°09' E 003°28'38212.7
2016-Jan-29 23:33N 43°19' E 009°53'1212.7
2016-Jan-29 22:34N 43°26' E 010°07'1110.8
2016-Jan-29 21:33N 43°33' E 010°18'1 0.6
2016-Jan-29 19:20N 43°34' E 010°19'0 0.0
2016-Jan-29 18:29N 43°34' E 010°19'0 0.0
2016-Jan-29 17:17N 43°34' E 010°19'0 0.0
2016-Jan-29 16:32N 43°34' E 010°19'0 0.0
2016-Jan-29 15:32N 43°34' E 010°19'0 0.0
2016-Jan-29 14:32N 43°34' E 010°19'0 0.0
2016-Jan-29 13:32N 43°34' E 010°19'0 0.0
2016-Jan-29 12:23N 43°34' E 010°19'0 0.0
2016-Jan-29 11:29N 43°34' E 010°19'0 0.0
2016-Jan-29 10:29N 43°34' E 010°19'0 0.0
2016-Jan-29 08:29N 43°34' E 010°19'0 0.0
2016-Jan-29 07:29N 43°34' E 010°19'0 0.0
2016-Jan-29 05:08N 43°34' E 010°19'0 0.0
2016-Jan-29 04:32N 43°34' E 010°19'0 0.0
2016-Jan-29 03:32N 43°34' E 010°19'0 0.0
2016-Jan-29 02:23N 43°34' E 010°19'0 0.0
2016-Jan-29 01:32N 43°34' E 010°19'0 0.0
2016-Jan-28 23:26N 43°34' E 010°19'0 0.0
2016-Jan-28 22:32N 43°34' E 010°19'0 0.0
2016-Jan-28 21:29N 43°34' E 010°19'0 0.0
2016-Jan-28 20:32N 43°34' E 010°19'0 0.0
2016-Jan-28 19:32N 43°34' E 010°19'0 0.0
2016-Jan-28 18:29N 43°34' E 010°19'0 0.0
2016-Jan-28 17:32N 43°34' E 010°19'0 0.0
2016-Jan-28 16:29N 43°34' E 010°19'0 0.0
2016-Jan-28 15:32N 43°34' E 010°19'0 0.0
2016-Jan-28 14:26N 43°34' E 010°19'0 0.0
2016-Jan-28 13:29N 43°34' E 010°19'0 0.0
2016-Jan-28 12:32N 43°34' E 010°19'0 0.0
2016-Jan-28 11:32N 43°34' E 010°19'1 0.6
2016-Jan-28 10:33N 43°34' E 010°18'5 4.4
2016-Jan-28 09:31N 43°30' E 010°17'0 0.0
2016-Jan-28 08:31N 43°30' E 010°17'0 0.0
2016-Jan-28 07:19N 43°30' E 010°17'0 0.0
2016-Jan-28 06:31N 43°30' E 010°17'0 0.0
2016-Jan-28 05:31N 43°30' E 010°17'0 0.0
2016-Jan-28 04:31N 43°30' E 010°17'0 0.0
2016-Jan-28 03:28N 43°30' E 010°17'0 0.0
2016-Jan-28 02:28N 43°30' E 010°17'0 0.0
2016-Jan-28 01:31N 43°30' E 010°17'0 0.0
2016-Jan-28 00:31N 43°30' E 010°17'0 0.0
2016-Jan-27 23:31N 43°30' E 010°17'0 0.0
2016-Jan-27 22:28N 43°30' E 010°17'0 0.0
2016-Jan-27 21:31N 43°30' E 010°17'0 0.0
2016-Jan-27 20:31N 43°30' E 010°17'0 0.0
2016-Jan-27 19:31N 43°30' E 010°17'0 0.0
2016-Jan-27 18:28N 43°30' E 010°17'0 0.0
2016-Jan-27 17:31N 43°30' E 010°17'0 0.0
2016-Jan-27 16:31N 43°30' E 010°17'0 0.0
2016-Jan-27 15:31N 43°30' E 010°17'8 8.4
2016-Jan-27 14:33N 43°22' E 010°12'18 1.8
2016-Jan-27 04:17N 43°05' E 010°05'8 9.5
2016-Jan-27 03:27N 43°09' E 009°55'19 9.3
2016-Jan-27 01:25N 43°16' E 009°31'8 9.5
2016-Jan-27 00:33N 43°19' E 009°21'  

Dump ship's entire track history